Time;durP1;ratioP1;P1;durP2;ratioP2;P2;SDS_P1;SDS_P2;PMS_P1;PMS_P2;Temp;Humidity;BMP_temperature;BMP_pressure;BME280_temperature;BME280_humidity;BME280_pressure;Samples;Min_cycle;Max_cycle;Signal;HPM_P1;HPM_P2
2021/12/27 00:01:56;;;;;;;66.95;29.85;;;;;;;2.30;100.00;100210.03;5104630;28;20027;-90
2021/12/27 00:04:22;;;;;;;63.75;29.65;;;;;;;2.34;100.00;100216.88;5115547;28;20023;-89
2021/12/27 00:06:47;;;;;;;62.60;30.17;;;;;;;2.37;100.00;100221.16;5115278;28;20047;-89
2021/12/27 00:09:12;;;;;;;62.38;28.80;;;;;;;2.34;100.00;100215.16;5115670;28;20079;-89
2021/12/27 00:11:39;;;;;;;60.95;28.35;;;;;;;2.37;100.00;100222.03;5098663;28;20468;-89
2021/12/27 00:14:05;;;;;;;64.60;30.00;;;;;;;2.38;100.00;100217.72;5104063;28;20024;-90
2021/12/27 00:16:30;;;;;;;69.30;30.15;;;;;;;2.40;100.00;100227.16;5101111;28;20039;-89
2021/12/27 00:18:55;;;;;;;67.55;29.27;;;;;;;2.37;100.00;100213.44;5115873;28;20050;-89
2021/12/27 00:21:21;;;;;;;62.22;28.98;;;;;;;2.37;100.00;100204.00;5113924;28;20031;-89
2021/12/27 00:23:46;;;;;;;60.40;29.77;;;;;;;2.41;100.00;100213.44;5115245;28;20023;-89
2021/12/27 00:26:11;;;;;;;58.88;28.10;;;;;;;2.41;100.00;100212.59;5115476;28;20028;-89
2021/12/27 00:28:37;;;;;;;59.30;28.55;;;;;;;2.42;100.00;100215.19;5113821;28;20104;-88
2021/12/27 00:31:02;;;;;;;63.30;30.05;;;;;;;2.45;100.00;100209.16;5109868;28;20138;-88
2021/12/27 00:33:28;;;;;;;59.47;28.15;;;;;;;2.42;100.00;100204.00;5113482;28;20372;-88
2021/12/27 00:35:53;;;;;;;66.22;28.55;;;;;;;2.45;100.00;100202.31;5114881;28;20024;-89
2021/12/27 00:38:19;;;;;;;63.05;29.05;;;;;;;2.46;100.00;100196.31;5115371;28;20031;-89
2021/12/27 00:40:44;;;;;;;66.03;30.05;;;;;;;2.47;100.00;100198.00;5114869;27;20118;-89
2021/12/27 00:43:10;;;;;;;65.65;29.52;;;;;;;2.46;100.00;100178.28;5099218;28;20020;-89
2021/12/27 00:45:36;;;;;;;61.38;28.45;;;;;;;2.50;100.00;100186.84;5097533;28;20103;-88
2021/12/27 00:48:01;;;;;;;61.03;28.60;;;;;;;2.46;100.00;100175.72;5115217;28;20467;-89
2021/12/27 00:50:28;;;;;;;62.05;28.92;;;;;;;2.50;100.00;100169.69;5114025;28;20479;-90
2021/12/27 00:52:53;;;;;;;59.80;28.25;;;;;;;2.50;100.00;100166.28;5105096;28;20583;-88
2021/12/27 00:55:19;;;;;;;67.30;29.80;;;;;;;2.53;100.00;100161.13;5094705;28;20020;-89
2021/12/27 00:57:46;;;;;;;62.33;29.98;;;;;;;2.52;100.00;100168.00;5095804;28;20452;-90
2021/12/27 01:00:16;;;;;;;59.85;28.10;;;;;;;2.52;100.00;100157.69;5111760;27;20062;-89
2021/12/27 01:02:42;;;;;;;58.58;28.85;;;;;;;2.52;100.00;100162.84;5092643;28;20020;-89
2021/12/27 01:05:08;;;;;;;66.32;31.42;;;;;;;2.53;100.00;100159.41;5093583;28;20034;-87
2021/12/27 01:07:35;;;;;;;65.05;28.13;;;;;;;2.51;100.00;100158.53;5098482;28;20031;-89
2021/12/27 01:12:50;;;;;;;63.75;29.42;;;;;;;2.52;100.00;100157.69;5111264;28;20028;-89
2021/12/27 01:17:48;;;;;;;64.43;28.88;;;;;;;2.55;100.00;100152.56;5113636;28;20061;-89
2021/12/27 01:20:16;;;;;;;60.42;28.00;;;;;;;2.59;100.00;100161.13;5114481;28;20023;-90
2021/12/27 01:22:41;;;;;;;65.38;29.92;;;;;;;2.62;100.00;100161.13;5103997;28;20024;-90
2021/12/27 01:25:08;;;;;;;68.38;30.23;;;;;;;2.65;100.00;100155.09;5096808;28;20404;-89
2021/12/27 01:27:34;;;;;;;66.65;31.00;;;;;;;2.66;100.00;100159.38;5098363;28;20372;-90
2021/12/27 01:29:59;;;;;;;63.58;29.35;;;;;;;2.66;100.00;100154.25;5093429;28;20040;-92
2021/12/27 01:32:28;;;;;;;65.30;29.85;;;;;;;2.67;100.00;100161.09;5092625;28;20498;-89
2021/12/27 01:34:54;;;;;;;66.72;30.45;;;;;;;2.66;100.00;100151.66;5093974;28;20025;-90
2021/12/27 01:37:19;;;;;;;64.68;30.20;;;;;;;2.67;100.00;100151.66;5095605;28;20035;-90
2021/12/27 01:39:45;;;;;;;66.43;30.63;;;;;;;2.67;100.00;100143.06;5112460;28;20035;-89
2021/12/27 01:42:11;;;;;;;68.45;31.55;;;;;;;2.68;100.00;100150.81;5111997;28;20494;-90
2021/12/27 01:44:38;;;;;;;70.18;30.10;;;;;;;2.72;100.00;100154.22;5098109;28;20036;-90
2021/12/27 01:47:06;;;;;;;70.13;29.95;;;;;;;2.70;100.00;100148.22;5108229;28;20035;-88
2021/12/27 01:49:31;;;;;;;63.78;29.17;;;;;;;2.73;100.00;100153.38;5113568;28;20027;-89
2021/12/27 01:51:56;;;;;;;66.55;30.02;;;;;;;2.73;100.00;100148.22;5112137;28;20027;-90
2021/12/27 01:54:21;;;;;;;66.57;30.70;;;;;;;2.76;100.00;100148.22;5102370;28;20059;-90
2021/12/27 01:56:50;;;;;;;71.05;30.35;;;;;;;2.75;100.00;100141.34;5098344;28;20034;-90
2021/12/27 01:59:18;;;;;;;69.63;30.17;;;;;;;2.79;100.00;100145.63;5093624;28;20543;-89
2021/12/27 02:01:44;;;;;;;76.43;30.10;;;;;;;2.78;100.00;100133.63;5092748;28;20297;-88
2021/12/27 02:04:10;;;;;;;67.45;30.73;;;;;;;2.79;100.00;100137.91;5107831;28;20481;-89
2021/12/27 02:06:35;;;;;;;66.47;30.33;;;;;;;2.80;100.00;100144.75;5112500;28;20035;-89
2021/12/27 02:09:01;;;;;;;65.80;29.98;;;;;;;2.82;100.00;100137.91;5113775;28;20032;-90
2021/12/27 02:11:27;;;;;;;68.63;29.85;;;;;;;2.83;100.00;100134.44;5111411;28;20028;-89
2021/12/27 02:13:52;;;;;;;67.38;30.05;;;;;;;2.85;100.00;100137.88;5110583;28;20048;-89
2021/12/27 02:16:21;;;;;;;73.00;29.90;;;;;;;2.86;100.00;100138.75;5111048;28;20058;-90
2021/12/27 02:18:48;;;;;;;70.50;30.20;;;;;;;2.83;100.00;100129.31;5093724;28;20063;-89
2021/12/27 02:21:14;;;;;;;66.55;28.60;;;;;;;2.85;100.00;100132.75;5092255;28;20055;-91
2021/12/27 02:23:41;;;;;;;69.05;31.38;;;;;;;2.87;100.00;100135.28;5092680;28;20384;-90
2021/12/27 02:26:08;;;;;;;67.72;30.23;;;;;;;2.87;100.00;100136.16;5099750;28;20024;-90
2021/12/27 02:28:33;;;;;;;67.35;29.98;;;;;;;2.86;100.00;100137.03;5111991;28;20118;-89
2021/12/27 02:30:59;;;;;;;62.15;28.63;;;;;;;2.86;100.00;100123.28;5103463;28;20139;-90
2021/12/27 02:33:25;;;;;;;70.30;29.67;;;;;;;2.88;100.00;100131.84;5092223;28;20024;-91
2021/12/27 02:35:54;;;;;;;66.38;29.83;;;;;;;2.88;100.00;100131.84;5108263;28;20020;-90
2021/12/27 02:38:23;;;;;;;71.03;29.65;;;;;;;2.85;100.00;100127.59;5113376;28;20027;-90
2021/12/27 02:40:52;;;;;;;67.70;29.27;;;;;;;2.89;100.00;100134.44;5103879;28;20173;-89
2021/12/27 02:43:20;;;;;;;69.57;28.75;;;;;;;2.90;100.00;100136.13;5091948;28;20016;-89
2021/12/27 02:45:51;;;;;;;73.63;31.08;;;;;;;2.91;100.00;100137.88;5092323;28;20047;-90
2021/12/27 02:48:19;;;;;;;67.95;30.70;;;;;;;2.91;100.00;100137.88;5092561;28;20024;-89
2021/12/27 02:50:46;;;;;;;67.25;30.02;;;;;;;2.95;100.00;100133.56;5097404;28;20036;-91
2021/12/27 02:53:12;;;;;;;74.50;30.65;;;;;;;2.95;100.00;100125.84;5112594;28;20034;-89
2021/12/27 02:55:39;;;;;;;74.72;30.27;;;;;;;2.96;100.00;100118.09;5109796;28;20028;-89
2021/12/27 02:58:05;;;;;;;69.95;30.33;;;;;;;2.97;100.00;100114.66;5107398;28;20032;-89
2021/12/27 03:00:34;;;;;;;67.88;30.10;;;;;;;2.96;100.00;100112.94;5091922;28;20036;-89
2021/12/27 03:02:59;;;;;;;76.22;31.00;;;;;;;2.95;100.00;100111.25;5091469;28;20468;-89
2021/12/27 03:05:29;;;;;;;74.40;31.55;;;;;;;2.98;100.00;100121.53;5091751;28;20051;-88
2021/12/27 03:07:55;;;;;;;80.50;31.00;;;;;;;2.97;100.00;100112.06;5091958;28;20507;-90
2021/12/27 03:10:28;;;;;;;69.47;30.48;;;;;;;3.00;100.00;100113.78;5103493;28;20047;-88
2021/12/27 03:12:54;;;;;;;70.32;30.98;;;;;;;3.02;100.00;100104.34;5108678;28;20031;-89
2021/12/27 03:15:22;;;;;;;74.47;31.63;;;;;;;3.03;100.00;100109.47;5112413;28;20012;-90
2021/12/27 03:17:48;;;;;;;70.20;29.15;;;;;;;3.01;100.00;100095.78;5111583;28;20027;-88
2021/12/27 03:20:16;;;;;;;68.72;30.00;;;;;;;3.06;100.00;100095.75;5111288;28;20016;-89
2021/12/27 03:22:43;;;;;;;73.80;30.65;;;;;;;3.07;100.00;100096.59;5111278;28;20027;-89
2021/12/27 03:25:15;;;;;;;70.28;29.50;;;;;;;3.07;100.00;100099.16;5110367;28;20031;-89
2021/12/27 03:27:40;;;;;;;65.82;30.08;;;;;;;3.07;100.00;100091.44;5108815;28;20043;-89
2021/12/27 03:30:09;;;;;;;69.40;29.42;;;;;;;3.08;100.00;100093.16;5111715;28;20035;-89
2021/12/27 03:32:36;;;;;;;75.07;29.95;;;;;;;3.11;100.00;100101.72;5111108;28;20035;-89
2021/12/27 03:35:11;;;;;;;69.53;29.90;;;;;;;3.12;100.00;100105.16;5112365;28;20019;-89
2021/12/27 03:37:40;;;;;;;69.18;30.45;;;;;;;3.11;100.00;100100.88;5106452;28;20043;-88
2021/12/27 03:40:09;;;;;;;71.28;30.20;;;;;;;3.13;100.00;100096.56;5098988;28;20044;-89
2021/12/27 03:42:35;;;;;;;70.20;29.30;;;;;;;3.15;100.00;100094.84;5091402;28;20038;-89
2021/12/27 03:45:00;;;;;;;70.63;29.30;;;;;;;3.17;100.00;100093.97;5101401;28;20039;-89
2021/12/27 03:47:26;;;;;;;72.90;31.05;;;;;;;3.19;100.00;100096.53;5111485;28;20122;-90
2021/12/27 03:49:52;;;;;;;69.95;29.10;;;;;;;3.17;100.00;100087.94;5111324;28;20054;-90
2021/12/27 03:52:17;;;;;;;69.07;29.70;;;;;;;3.21;100.00;100089.66;5106716;28;20119;-88
2021/12/27 03:54:42;;;;;;;66.22;29.15;;;;;;;3.18;100.00;100079.38;5091420;28;20115;-88
2021/12/27 03:57:08;;;;;;;74.65;30.00;;;;;;;3.23;100.00;100072.47;5091521;28;20032;-89
2021/12/27 04:02:12;;;;;;;69.93;30.17;;;;;;;3.22;100.00;100070.75;5091407;28;20032;-89
2021/12/27 04:04:38;;;;;;;65.28;29.27;;;;;;;3.22;100.00;100065.59;5100496;28;20109;-88
2021/12/27 04:07:07;;;;;;;66.18;29.80;;;;;;;3.21;100.00;100066.47;5096219;28;20463;-90
2021/12/27 04:09:36;;;;;;;69.97;29.35;;;;;;;3.19;100.00;100065.63;5090881;28;20040;-89
2021/12/27 04:12:02;;;;;;;72.90;30.73;;;;;;;3.21;100.00;100058.75;5090883;28;20028;-91
2021/12/27 04:14:27;;;;;;;70.63;30.05;;;;;;;3.26;100.00;100055.25;5090813;28;20031;-89
2021/12/27 04:16:53;;;;;;;75.88;30.92;;;;;;;3.27;100.00;100056.16;5091657;28;20028;-89
2021/12/27 04:19:18;;;;;;;70.03;30.15;;;;;;;3.29;100.00;100055.25;5091520;28;20023;-90
2021/12/27 04:21:44;;;;;;;68.75;30.40;;;;;;;3.30;100.00;100056.09;5104887;28;20023;-88
2021/12/27 04:24:09;;;;;;;67.32;29.65;;;;;;;3.29;100.00;100047.53;5111811;28;20057;-89
2021/12/27 04:26:34;;;;;;;68.65;30.75;;;;;;;3.29;100.00;100041.50;5109400;28;20035;-89
2021/12/27 04:29:00;;;;;;;69.35;30.70;;;;;;;3.32;100.00;100043.22;5111173;28;20376;-90
2021/12/27 04:31:25;;;;;;;76.72;31.13;;;;;;;3.33;100.00;100032.03;5108565;28;20523;-88
2021/12/27 04:33:51;;;;;;;72.78;30.05;;;;;;;3.31;100.00;100031.22;5108940;28;20024;-88
2021/12/27 04:36:16;;;;;;;71.63;29.50;;;;;;;3.32;100.00;100033.78;5094370;28;20030;-89
2021/12/27 04:38:42;;;;;;;78.00;30.45;;;;;;;3.38;100.00;100038.03;5094584;28;20070;-91
2021/12/27 04:41:09;;;;;;;71.78;29.90;;;;;;;3.36;100.00;100032.03;5105304;28;20055;-91
2021/12/27 04:43:35;;;;;;;67.28;29.50;;;;;;;3.34;100.00;100026.91;5114682;28;20020;-90
2021/12/27 04:46:00;;;;;;;73.65;29.95;;;;;;;3.39;100.00;100034.59;5115375;28;20119;-89
2021/12/27 04:48:26;;;;;;;70.15;29.55;;;;;;;3.42;100.00;100032.84;5105342;28;20086;-89
2021/12/27 04:50:52;;;;;;;71.68;30.05;;;;;;;3.42;100.00;100038.00;5094936;28;20392;-89
2021/12/27 04:53:18;;;;;;;75.93;30.13;;;;;;;3.43;100.00;100034.56;5094698;28;20028;-89
2021/12/27 04:55:46;;;;;;;78.28;30.23;;;;;;;3.44;100.00;100032.84;5099656;28;20028;-89
2021/12/27 04:58:16;;;;;;;74.45;30.88;;;;;;;3.46;100.00;100034.50;5094937;28;20095;-90
2021/12/27 05:00:42;;;;;;;67.53;29.20;;;;;;;3.46;100.00;100031.09;5094723;28;20040;-89
2021/12/27 05:03:07;;;;;;;71.85;29.42;;;;;;;3.47;100.00;100022.50;5109839;28;20032;-90
2021/12/27 05:05:33;;;;;;;73.47;29.98;;;;;;;3.48;100.00;100021.63;5111277;28;20038;-89
2021/12/27 05:07:59;;;;;;;73.45;28.90;;;;;;;3.47;100.00;100018.22;5094119;28;20032;-89
2021/12/27 05:10:26;;;;;;;70.78;29.10;;;;;;;3.45;100.00;100022.50;5093301;28;20078;-89
2021/12/27 05:12:51;;;;;;;78.40;31.25;;;;;;;3.49;100.00;100028.50;5094544;28;20081;-90
2021/12/27 05:15:16;;;;;;;70.65;29.23;;;;;;;3.48;100.00;100027.63;5096023;28;20035;-89
2021/12/27 05:17:42;;;;;;;68.15;29.25;;;;;;;3.47;100.00;100020.78;5107759;28;20028;-89
2021/12/27 05:20:09;;;;;;;78.15;29.00;;;;;;;3.48;100.00;100024.22;5094227;28;20360;-89
2021/12/27 05:22:34;;;;;;;69.10;28.17;;;;;;;3.53;100.00;100025.00;5095914;28;20097;-90
2021/12/27 05:25:00;;;;;;;70.00;30.35;;;;;;;3.52;100.00;100021.59;5113925;28;20465;-89
2021/12/27 05:27:25;;;;;;;70.38;29.45;;;;;;;3.56;100.00;100019.84;5094397;28;20055;-90
2021/12/27 05:29:51;;;;;;;71.97;29.23;;;;;;;3.59;100.00;100019.81;5095104;28;20056;-89
2021/12/27 05:32:16;;;;;;;72.88;29.80;;;;;;;3.60;100.00;100012.97;5093491;28;20123;-90
2021/12/27 05:34:41;;;;;;;70.00;30.40;;;;;;;3.63;100.00;100016.38;5093412;28;20020;-89
2021/12/27 05:37:06;;;;;;;79.47;30.40;;;;;;;3.63;100.00;100010.34;5108195;28;20470;-89
2021/12/27 05:39:33;;;;;;;74.72;30.35;;;;;;;3.62;100.00;99999.16;5101495;28;20089;-89
2021/12/27 05:41:58;;;;;;;75.68;28.85;;;;;;;3.62;100.00;99994.00;5095112;28;20020;-89
2021/12/27 05:44:23;;;;;;;71.57;29.45;;;;;;;3.64;100.00;100001.75;5093544;28;20566;-89
2021/12/27 05:46:48;;;;;;;69.10;30.23;;;;;;;3.63;100.00;99990.59;5111815;28;20035;-89
2021/12/27 05:49:14;;;;;;;66.45;29.73;;;;;;;3.69;100.00;100005.13;5114056;28;20435;-89
2021/12/27 05:51:43;;;;;;;69.10;29.20;;;;;;;3.65;100.00;100000.88;5111736;28;20422;-89
2021/12/27 05:54:10;;;;;;;67.80;29.65;;;;;;;3.71;100.00;100014.56;5096967;28;20028;-90
2021/12/27 05:56:35;;;;;;;70.35;29.02;;;;;;;3.70;100.00;100018.03;5111176;28;20059;-89
2021/12/27 05:59:01;;;;;;;70.97;28.83;;;;;;;3.73;100.00;100017.16;5092714;28;20474;-89
2021/12/27 06:01:26;;;;;;;66.78;29.55;;;;;;;3.75;100.00;100012.81;5093246;28;20031;-90
2021/12/27 06:03:53;;;;;;;72.72;29.30;;;;;;;3.74;100.00;100008.53;5107298;28;20031;-89
2021/12/27 06:06:18;;;;;;;71.30;28.67;;;;;;;3.78;100.00;100017.94;5100560;28;20076;-90
2021/12/27 06:08:44;;;;;;;71.85;29.30;;;;;;;3.77;100.00;100007.66;5113373;28;20035;-90
2021/12/27 06:11:09;;;;;;;72.55;29.77;;;;;;;3.80;100.00;100007.63;5110555;28;20028;-91
2021/12/27 06:13:34;;;;;;;66.47;28.90;;;;;;;3.79;100.00;100009.31;5101156;28;20041;-90
2021/12/27 06:16:00;;;;;;;70.55;28.88;;;;;;;3.81;100.00;100006.75;5092980;28;20468;-90
2021/12/27 06:18:25;;;;;;;61.08;28.02;;;;;;;3.79;100.00;99998.16;5093033;28;20387;-91
2021/12/27 06:20:50;;;;;;;66.72;27.52;;;;;;;3.74;100.00;100003.38;5099254;28;20100;-88
2021/12/27 06:23:15;;;;;;;68.25;27.52;;;;;;;3.75;100.00;100007.66;5113636;28;20031;-89
2021/12/27 06:25:43;;;;;;;68.10;27.60;;;;;;;3.81;100.00;100010.19;5112818;28;20023;-89
2021/12/27 06:28:09;;;;;;;69.53;29.23;;;;;;;3.86;100.00;100005.84;5111801;28;20042;-90
2021/12/27 06:30:34;;;;;;;68.88;28.33;;;;;;;3.87;100.00;100010.13;5091865;28;20040;-89
2021/12/27 06:32:59;;;;;;;69.07;27.40;;;;;;;3.89;100.00;100000.66;5104193;28;20106;-89
2021/12/27 06:35:25;;;;;;;67.15;27.52;;;;;;;3.89;100.00;100002.38;5112163;28;20019;-90
2021/12/27 06:37:50;;;;;;;66.43;27.63;;;;;;;3.91;100.00;99996.31;5111880;28;20084;-89
2021/12/27 06:40:17;;;;;;;74.70;28.73;;;;;;;3.93;100.00;99998.91;5095441;28;20486;-88
2021/12/27 06:42:42;;;;;;;65.95;28.15;;;;;;;3.95;100.00;100004.88;5106291;28;20025;-89
2021/12/27 06:45:09;;;;;;;65.85;28.17;;;;;;;3.91;100.00;99998.91;5092766;28;20019;-90
2021/12/27 06:47:34;;;;;;;63.50;27.27;;;;;;;3.96;100.00;99997.16;5091884;28;20115;-90
2021/12/27 06:49:59;;;;;;;70.90;28.30;;;;;;;3.94;100.00;99985.13;5103704;28;20444;-89
2021/12/27 06:52:25;;;;;;;69.32;28.00;;;;;;;3.97;100.00;99990.25;5112521;28;20447;-89
2021/12/27 06:54:51;;;;;;;60.45;27.27;;;;;;;3.97;100.00;99985.97;5101067;28;20035;-89
2021/12/27 06:57:18;;;;;;;67.85;27.60;;;;;;;3.98;100.00;99979.91;5109427;28;20028;-89
2021/12/27 06:59:44;;;;;;;64.90;27.27;;;;;;;3.98;100.00;99979.91;5107676;28;20031;-90
2021/12/27 07:02:09;;;;;;;65.75;26.77;;;;;;;3.96;100.00;99971.38;5108019;28;20031;-90
2021/12/27 07:04:34;;;;;;;71.13;27.85;;;;;;;4.01;100.00;99976.47;5106846;28;20023;-89
2021/12/27 07:07:00;;;;;;;72.53;27.83;;;;;;;4.03;100.00;99974.72;5104754;28;20032;-89
2021/12/27 07:09:25;;;;;;;69.85;27.23;;;;;;;4.02;100.00;99972.16;5104083;28;20036;-91
2021/12/27 07:11:50;;;;;;;70.97;27.25;;;;;;;3.96;100.00;99958.47;5112239;28;20059;-89
2021/12/27 07:14:16;;;;;;;67.25;26.60;;;;;;;3.98;100.00;99969.59;5109487;28;20352;-89
2021/12/27 07:16:41;;;;;;;67.10;26.98;;;;;;;3.98;100.00;99972.19;5092811;28;20048;-90
2021/12/27 07:19:06;;;;;;;68.38;26.63;;;;;;;3.94;100.00;99967.94;5105496;28;20020;-89
2021/12/27 07:21:31;;;;;;;67.45;26.13;;;;;;;3.90;100.00;99961.09;5104505;28;20023;-91
2021/12/27 07:23:57;;;;;;;66.88;25.98;;;;;;;3.94;100.00;99959.34;5110944;28;20035;-89
2021/12/27 07:26:22;;;;;;;64.75;26.80;;;;;;;3.92;100.00;99959.38;5113251;28;20019;-89
2021/12/27 07:28:51;;;;;;;64.63;26.23;;;;;;;3.87;100.00;99953.41;5099851;28;20486;-90
2021/12/27 07:31:16;;;;;;;61.40;25.45;;;;;;;3.81;100.00;99955.19;5110220;28;20048;-89
2021/12/27 07:33:41;;;;;;;65.22;25.88;;;;;;;3.78;100.00;99961.22;5107101;28;20466;-90
2021/12/27 07:36:10;;;;;;;68.45;26.70;;;;;;;3.84;100.00;99965.47;5107028;28;20036;-93
2021/12/27 07:38:36;;;;;;;69.35;26.05;;;;;;;3.83;100.00;99956.88;5112162;28;20039;-90
2021/12/27 07:41:03;;;;;;;71.00;26.10;;;;;;;3.78;100.00;99955.22;5108015;28;20016;-89
2021/12/27 07:43:29;;;;;;;67.53;27.98;;;;;;;3.85;100.00;99964.59;5111968;28;20149;-91
2021/12/27 07:45:54;;;;;;;73.72;26.75;;;;;;;3.87;100.00;99968.88;5104479;28;20052;-90
2021/12/27 07:48:20;;;;;;;68.25;27.05;;;;;;;3.89;100.00;99954.25;5108605;28;20036;-90
2021/12/27 07:50:45;;;;;;;65.63;26.50;;;;;;;3.88;100.00;99962.84;5118535;28;20015;-90
2021/12/27 07:53:10;;;;;;;66.53;27.20;;;;;;;3.91;100.00;99960.22;5122713;28;20058;-90
2021/12/27 07:55:35;;;;;;;70.30;27.20;;;;;;;3.90;100.00;99966.25;5124438;28;20043;-90
2021/12/27 07:58:01;;;;;;;72.63;26.58;;;;;;;3.86;100.00;99977.50;5106445;28;20060;-90
2021/12/27 08:00:27;;;;;;;65.32;26.25;;;;;;;3.74;100.00;99969.88;5123052;28;20461;-91
2021/12/27 08:02:53;;;;;;;59.67;26.25;;;;;;;3.67;100.00;99963.91;5119105;28;20084;-88
2021/12/27 08:05:18;;;;;;;57.58;24.13;;;;;;;3.61;100.00;99970.84;5103058;28;20025;-89
2021/12/27 08:07:44;;;;;;;59.60;24.65;;;;;;;3.50;100.00;99971.78;5094642;28;20088;-91
2021/12/27 08:10:11;;;;;;;62.25;24.80;;;;;;;3.44;100.00;99977.00;5108019;28;20108;-89
2021/12/27 08:12:37;;;;;;;59.97;24.77;;;;;;;3.42;100.00;99981.31;5096193;28;20032;-89
2021/12/27 08:15:05;;;;;;;61.15;24.10;;;;;;;3.44;100.00;99976.16;5111036;28;20035;-91
2021/12/27 08:17:30;;;;;;;69.25;26.75;;;;;;;3.49;100.00;99977.78;5116668;28;20027;-89
2021/12/27 08:19:56;;;;;;;75.40;26.88;;;;;;;3.60;100.00;99979.47;5108288;27;20031;-88
2021/12/27 08:22:21;;;;;;;71.57;26.02;;;;;;;3.65;100.00;99980.25;5117233;28;20031;-90
2021/12/27 08:24:46;;;;;;;71.43;27.25;;;;;;;3.71;100.00;99980.19;5116906;27;20432;-89
2021/12/27 08:27:11;;;;;;;66.35;26.55;;;;;;;3.77;100.00;99980.16;5112072;28;20027;-90
2021/12/27 08:29:37;;;;;;;73.20;27.92;;;;;;;3.82;100.00;99980.94;5115771;28;20048;-88
2021/12/27 08:32:03;;;;;;;65.95;26.23;;;;;;;3.85;100.00;99967.16;5117627;28;20076;-89
2021/12/27 08:34:29;;;;;;;61.75;25.75;;;;;;;3.84;100.00;99962.91;5115054;28;20067;-89
2021/12/27 08:36:55;;;;;;;63.50;26.60;;;;;;;3.75;100.00;99956.09;5117248;28;20023;-90
2021/12/27 08:39:20;;;;;;;67.75;25.30;;;;;;;3.72;100.00;99958.69;5105288;28;20050;-89
2021/12/27 08:41:46;;;;;;;67.22;26.13;;;;;;;3.72;100.00;99958.69;5094825;28;20036;-88
2021/12/27 08:44:11;;;;;;;62.35;26.45;;;;;;;3.67;100.00;99952.75;5106745;28;20070;-89
2021/12/27 08:46:36;;;;;;;65.75;24.70;;;;;;;3.62;100.00;99960.50;5097878;28;20107;-90
2021/12/27 08:49:03;;;;;;;62.65;24.38;;;;;;;3.59;100.00;99960.53;5096308;28;20024;-89
2021/12/27 08:51:29;;;;;;;55.25;24.42;;;;;;;3.52;100.00;99933.97;5096620;28;20032;-89
2021/12/27 08:53:54;;;;;;;58.72;23.63;;;;;;;3.50;100.00;99932.28;5097269;28;20020;-90
2021/12/27 08:56:19;;;;;;;57.03;24.40;;;;;;;3.50;100.00;99933.16;5096275;28;20035;-90
2021/12/27 08:58:46;;;;;;;61.13;25.48;;;;;;;3.51;100.00;99924.53;5098154;28;20031;-90
2021/12/27 09:01:11;;;;;;;59.75;24.95;;;;;;;3.53;100.00;99927.09;5109247;28;20491;-90
2021/12/27 09:03:36;;;;;;;70.57;24.77;;;;;;;3.54;100.00;99933.97;5109896;28;20035;-89
2021/12/27 09:06:03;;;;;;;65.32;25.50;;;;;;;3.56;100.00;99936.50;5101781;27;20024;-90
2021/12/27 09:08:28;;;;;;;62.58;25.98;;;;;;;3.57;100.00;99936.53;5113663;28;20024;-90
2021/12/27 09:10:57;;;;;;;61.80;26.40;;;;;;;3.63;100.00;99938.16;5126368;28;20077;-91
2021/12/27 09:13:30;;;;;;;65.07;26.10;;;;;;;3.62;100.00;99934.72;5135518;28;20015;-92
2021/12/27 09:15:56;;;;;;;63.10;26.60;;;;;;;3.59;100.00;99933.91;5126463;27;20464;-89
2021/12/27 09:18:22;;;;;;;64.55;26.13;;;;;;;3.61;100.00;99937.34;5130227;28;20270;-91
2021/12/27 09:20:47;;;;;;;59.50;26.48;;;;;;;3.56;100.00;99944.25;5128367;28;20057;-91
2021/12/27 09:23:13;;;;;;;57.50;26.33;;;;;;;3.52;100.00;99940.84;5130072;28;20027;-92
2021/12/27 09:25:38;;;;;;;65.25;25.55;;;;;;;3.61;100.00;99945.91;5110787;28;20034;-92
2021/12/27 09:28:04;;;;;;;76.10;27.55;;;;;;;3.70;100.00;99939.84;5114931;28;20032;-91
2021/12/27 09:30:29;;;;;;;71.70;28.35;;;;;;;3.81;100.00;99932.84;5131422;28;20052;-91
2021/12/27 09:32:54;;;;;;;63.53;27.15;;;;;;;3.86;100.00;99935.34;5133017;28;20604;-92
2021/12/27 09:35:21;;;;;;;70.10;26.73;;;;;;;3.86;100.00;99925.91;5134253;28;20106;-90
2021/12/27 09:37:46;;;;;;;66.22;27.20;;;;;;;3.85;100.00;99923.34;5131564;28;20039;-90
2021/12/27 09:40:12;;;;;;;72.05;27.13;;;;;;;3.94;100.00;99926.66;5124851;28;20016;-90
2021/12/27 09:42:38;;;;;;;66.80;26.70;;;;;;;4.07;100.00;99932.56;5121819;28;20035;-90
2021/12/27 09:45:07;;;;;;;68.35;26.80;;;;;;;4.15;100.00;99922.13;5117576;28;20016;-90
2021/12/27 09:47:33;;;;;;;69.15;27.70;;;;;;;4.33;100.00;99914.19;5097356;28;20478;-90
2021/12/27 09:49:59;;;;;;;70.40;28.33;;;;;;;4.46;100.00;99913.13;5112104;28;20054;-91
2021/12/27 09:52:24;;;;;;;72.88;28.27;;;;;;;4.62;100.00;99913.78;5129546;28;20024;-92
2021/12/27 09:54:49;;;;;;;62.28;27.05;;;;;;;4.72;100.00;99914.50;5127142;28;20028;-90
2021/12/27 09:57:15;;;;;;;60.08;26.63;;;;;;;4.79;100.00;99910.13;5122670;28;20031;-90
2021/12/27 09:59:40;;;;;;;59.38;25.67;;;;;;;4.86;100.00;99906.56;5122109;28;20445;-90
2021/12/27 10:02:06;;;;;;;48.28;23.92;;;;;;;4.90;100.00;99908.22;5109165;28;20055;-91
2021/12/27 10:04:32;;;;;;;46.17;22.88;;;;;;;4.93;100.00;99905.59;5104146;28;20031;-92
2021/12/27 10:06:57;;;;;;;40.42;20.85;;;;;;;4.87;100.00;99885.00;5127630;28;20399;-89
2021/12/27 10:09:23;;;;;;;33.08;19.17;;;;;;;4.72;100.00;99867.19;5133283;28;20035;-90
2021/12/27 10:11:49;;;;;;;33.03;17.92;;;;;;;4.60;100.00;99871.66;5127779;28;20092;-93
2021/12/27 10:14:16;;;;;;;30.95;16.98;;;;;;;4.54;100.00;99884.63;5126526;28;20432;-91
2021/12/27 10:16:49;;;;;;;36.67;18.20;;;;;;;4.55;100.00;99883.78;5128415;28;20039;-89
2021/12/27 10:19:17;;;;;;;34.50;19.05;;;;;;;4.53;100.00;99872.59;5125105;28;20031;-89
2021/12/27 10:21:48;;;;;;;34.00;18.73;;;;;;;4.70;100.00;99886.13;5126316;28;20036;-90
2021/12/27 10:24:27;;;;;;;35.72;18.85;;;;;;;4.81;100.00;99883.41;5123214;28;20015;-91
2021/12/27 10:26:53;;;;;;;36.80;19.15;;;;;;;4.95;100.00;99885.75;5108429;28;20027;-92
2021/12/27 10:29:25;;;;;;;33.05;19.20;;;;;;;5.14;100.00;99882.00;5114582;28;20122;-90
2021/12/27 10:31:55;;;;;;;32.90;17.85;;;;;;;5.25;100.00;99879.22;5100051;28;20445;-92
2021/12/27 10:34:23;;;;;;;29.80;18.17;;;;;;;5.38;100.00;99885.03;5104488;28;20103;-91
2021/12/27 10:37:06;;;;;;;31.05;17.73;;;;;;;5.51;100.00;99880.50;5114960;28;20037;-90
2021/12/27 10:39:43;;;;;;;;;;;;;;;5.63;100.00;99875.13;5111855;27;20034;-90
2021/12/27 10:42:10;;;;;;;27.48;15.32;;;;;;;5.67;100.00;99873.31;5123528;28;19959;-92
2021/12/27 10:44:36;;;;;;;25.17;15.18;;;;;;;5.76;100.00;99870.56;5103155;28;20032;-92
2021/12/27 10:47:03;;;;;;;23.00;15.07;;;;;;;5.85;100.00;99873.84;5114144;28;20464;-92
2021/12/27 10:49:45;;;;;;;25.42;15.77;;;;;;;5.96;100.00;99859.88;5117187;28;20023;-92
2021/12/27 10:52:11;;;;;;;21.13;14.02;;;;;;;6.04;100.00;99857.97;5120508;28;20034;-91
2021/12/27 10:54:37;;;;;;;24.02;14.45;;;;;;;6.08;100.00;99863.06;5118449;28;20020;-90
2021/12/27 10:57:03;;;;;;;22.65;14.27;;;;;;;6.04;100.00;99857.97;5118338;28;20024;-91
2021/12/27 10:59:29;;;;;;;23.15;14.27;;;;;;;6.04;100.00;99858.81;5101397;28;20061;-92
2021/12/27 11:01:55;;;;;;;23.40;14.70;;;;;;;6.10;100.00;99852.66;5111580;28;20039;-90
2021/12/27 11:04:20;;;;;;;25.63;15.25;;;;;;;6.26;100.00;99856.63;5117209;28;20023;-91
2021/12/27 11:06:48;;;;;;;21.05;12.82;;;;;;;6.40;100.00;99864.09;5117538;28;20030;-90
2021/12/27 11:09:14;;;;;;;19.38;12.15;;;;;;;6.48;100.00;99864.78;5116085;28;20028;-92
2021/12/27 11:11:41;;;;;;;22.23;13.57;;;;;;;6.56;100.00;99867.19;5112151;28;20031;-91
2021/12/27 11:14:07;;;;;;;21.15;13.23;;;;;;;6.61;100.00;99852.41;5113005;28;20130;-91
2021/12/27 11:16:32;;;;;;;21.40;13.35;;;;;;;6.75;100.00;99850.34;5095144;28;20427;-93